Time;durP1;ratioP1;P1;durP2;ratioP2;P2;SDS_P1;SDS_P2;PMS_P1;PMS_P2;Temp;Humidity;BMP_temperature;BMP_pressure;BME280_temperature;BME280_humidity;BME280_pressure;Samples;Min_cycle;Max_cycle;Signal;HPM_P1;HPM_P2
2021/12/30 00:01:34;;;;;;;1.08;0.98;;;;;;;;;;5025194;28;20033;-72
2021/12/30 00:04:00;;;;;;;0.85;0.85;;;;;;;;;;5023792;28;20112;-71
2021/12/30 00:06:27;;;;;;;4.05;1.75;;;;;;;;;;5021292;28;20079;-72
2021/12/30 00:08:53;;;;;;;1.10;1.10;;;;;;;;;;5024597;28;20076;-71
2021/12/30 00:11:20;;;;;;;1.00;0.90;;;;;;;;;;5020240;28;20040;-71
2021/12/30 00:13:46;;;;;;;1.08;0.82;;;;;;;;;;5020939;28;20028;-72
2021/12/30 00:16:13;;;;;;;0.55;0.52;;;;;;;;;;5020561;28;20033;-72
2021/12/30 00:18:38;;;;;;;2.67;0.75;;;;;;;;;;5016717;28;20145;-72
2021/12/30 00:21:05;;;;;;;4.18;1.10;;;;;;;;;;5021396;28;20129;-72
2021/12/30 00:23:31;;;;;;;1.05;0.98;;;;;;;;;;5025080;28;20049;-71
2021/12/30 00:25:57;;;;;;;0.57;0.57;;;;;;;;;;5021809;28;20037;-72
2021/12/30 00:28:23;;;;;;;0.75;0.75;;;;;;;;;;5024498;28;20060;-72
2021/12/30 00:30:50;;;;;;;0.40;0.40;;;;;;;;;;5024328;28;20061;-71
2021/12/30 00:33:17;;;;;;;6.57;1.80;;;;;;;;;;5022443;28;20384;-72
2021/12/30 00:35:43;;;;;;;0.35;0.35;;;;;;;;;;5020899;28;20032;-72
2021/12/30 00:38:09;;;;;;;1.45;0.60;;;;;;;;;;5021049;28;20431;-71
2021/12/30 00:40:35;;;;;;;1.10;1.00;;;;;;;;;;5019848;28;20029;-71
2021/12/30 00:43:02;;;;;;;1.58;0.77;;;;;;;;;;5017612;28;20033;-71
2021/12/30 00:45:28;;;;;;;2.17;1.10;;;;;;;;;;5021797;28;20423;-72
2021/12/30 00:47:54;;;;;;;0.88;0.80;;;;;;;;;;5023449;28;20499;-71
2021/12/30 00:50:20;;;;;;;0.70;0.70;;;;;;;;;;5023455;28;20025;-71
2021/12/30 00:52:46;;;;;;;1.65;1.40;;;;;;;;;;5023581;28;20029;-71
2021/12/30 00:55:12;;;;;;;1.42;0.60;;;;;;;;;;5020432;28;20017;-71
2021/12/30 00:57:38;;;;;;;1.13;1.02;;;;;;;;;;5024229;28;20443;-71
2021/12/30 01:00:05;;;;;;;0.45;0.45;;;;;;;;;;5020349;28;20040;-72
2021/12/30 01:02:31;;;;;;;0.10;0.10;;;;;;;;;;5021147;28;20476;-72
2021/12/30 01:04:57;;;;;;;20.10;1.55;;;;;;;;;;5017328;28;20138;-72
2021/12/30 01:07:23;;;;;;;1.60;0.88;;;;;;;;;;5023681;28;20110;-72
2021/12/30 01:09:49;;;;;;;0.30;0.30;;;;;;;;;;5023349;28;20584;-71
2021/12/30 01:12:15;;;;;;;0.65;0.65;;;;;;;;;;5028197;28;20036;-71
2021/12/30 01:14:46;;;;;;;0.50;0.50;;;;;;;;;;5018496;28;20084;-71
2021/12/30 01:17:18;;;;;;;1.02;1.02;;;;;;;;;;5018818;28;20379;-71
2021/12/30 01:19:45;;;;;;;0.38;0.38;;;;;;;;;;5028975;28;20503;-72
2021/12/30 01:22:16;;;;;;;5.68;1.00;;;;;;;;;;5025652;28;20042;-72
2021/12/30 01:24:42;;;;;;;0.57;0.57;;;;;;;;;;5028254;28;20025;-71
2021/12/30 01:27:08;;;;;;;0.30;0.30;;;;;;;;;;5027522;28;20408;-72
2021/12/30 01:29:34;;;;;;;0.75;0.75;;;;;;;;;;5026236;28;20029;-72
2021/12/30 01:32:01;;;;;;;0.15;0.15;;;;;;;;;;5028414;28;20068;-72
2021/12/30 01:34:27;;;;;;;1.55;1.17;;;;;;;;;;5025702;28;20029;-72
2021/12/30 01:36:54;;;;;;;1.83;1.70;;;;;;;;;;5030087;28;20087;-72
2021/12/30 01:39:22;;;;;;;0.50;0.50;;;;;;;;;;5020648;28;20472;-72
2021/12/30 01:41:48;;;;;;;0.73;0.73;;;;;;;;;;5025242;28;20087;-72
2021/12/30 01:44:14;;;;;;;0.43;0.40;;;;;;;;;;5021082;28;20056;-71
2021/12/30 01:46:42;;;;;;;0.40;0.40;;;;;;;;;;5030449;28;20228;-71
2021/12/30 01:49:10;;;;;;;1.10;0.88;;;;;;;;;;5025472;28;20025;-71
2021/12/30 01:51:36;;;;;;;1.15;1.08;;;;;;;;;;5028364;28;20026;-71
2021/12/30 01:54:02;;;;;;;1.75;1.63;;;;;;;;;;5034350;28;20041;-71
2021/12/30 01:56:28;;;;;;;0.30;0.30;;;;;;;;;;5023869;28;20060;-71
2021/12/30 01:58:54;;;;;;;0.73;0.73;;;;;;;;;;5028862;28;20107;-71
2021/12/30 02:01:20;;;;;;;0.93;0.93;;;;;;;;;;5025085;28;20033;-71
2021/12/30 02:03:46;;;;;;;1.10;0.95;;;;;;;;;;5026221;28;20106;-71
2021/12/30 02:06:12;;;;;;;0.32;0.32;;;;;;;;;;5029585;28;20037;-71
2021/12/30 02:08:38;;;;;;;0.30;0.30;;;;;;;;;;5026806;28;20033;-71
2021/12/30 02:11:04;;;;;;;1.70;1.13;;;;;;;;;;5027111;28;20029;-71
2021/12/30 02:13:30;;;;;;;0.45;0.45;;;;;;;;;;5023919;28;20356;-71
2021/12/30 02:16:01;;;;;;;0.10;0.10;;;;;;;;;;5021378;28;20400;-71
2021/12/30 02:18:27;;;;;;;2.43;1.13;;;;;;;;;;5019290;28;20033;-71
2021/12/30 02:21:00;;;;;;;1.75;1.10;;;;;;;;;;5021015;28;20056;-71
2021/12/30 02:23:27;;;;;;;0.63;0.47;;;;;;;;;;5023348;28;20084;-71
2021/12/30 02:25:54;;;;;;;1.33;0.90;;;;;;;;;;5026612;28;20029;-71
2021/12/30 02:28:23;;;;;;;0.40;0.40;;;;;;;;;;5027185;28;20029;-71
2021/12/30 02:30:49;;;;;;;0.80;0.70;;;;;;;;;;5026816;28;20384;-71
2021/12/30 02:33:15;;;;;;;0.25;0.25;;;;;;;;;;5024258;28;20038;-71
2021/12/30 02:35:41;;;;;;;0.28;0.28;;;;;;;;;;5027896;28;20037;-71
2021/12/30 02:38:07;;;;;;;0.70;0.70;;;;;;;;;;5023358;28;20033;-71
2021/12/30 02:40:36;;;;;;;3.60;1.48;;;;;;;;;;5025274;28;20031;-71
2021/12/30 02:43:04;;;;;;;0.40;0.40;;;;;;;;;;5025169;28;20044;-71
2021/12/30 02:45:30;;;;;;;0.40;0.40;;;;;;;;;;5025452;28;20030;-70
2021/12/30 02:47:56;;;;;;;0.35;0.35;;;;;;;;;;5022339;28;20022;-71
2021/12/30 02:50:22;;;;;;;0.70;0.70;;;;;;;;;;5023332;28;20024;-72
2021/12/30 02:52:47;;;;;;;0.57;0.57;;;;;;;;;;5021633;28;20392;-71
2021/12/30 02:55:13;;;;;;;0.73;0.73;;;;;;;;;;5008846;28;20950;-71
2021/12/30 02:57:39;;;;;;;0.70;0.70;;;;;;;;;;5022595;28;20021;-71
2021/12/30 03:00:07;;;;;;;2.65;1.15;;;;;;;;;;5024360;28;20041;-72
2021/12/30 03:02:35;;;;;;;1.65;0.80;;;;;;;;;;5008475;28;20342;-72
2021/12/30 03:05:02;;;;;;;0.40;0.40;;;;;;;;;;5026388;28;20553;-72
2021/12/30 03:07:28;;;;;;;2.05;0.75;;;;;;;;;;5024098;28;20594;-72
2021/12/30 03:09:54;;;;;;;0.50;0.50;;;;;;;;;;5026562;28;20053;-71
2021/12/30 03:12:20;;;;;;;0.73;0.73;;;;;;;;;;5023258;28;20029;-72
2021/12/30 03:14:46;;;;;;;1.05;0.68;;;;;;;;;;5025672;28;20029;-71
2021/12/30 03:17:12;;;;;;;0.70;0.50;;;;;;;;;;5012015;28;20103;-71
2021/12/30 03:19:38;;;;;;;0.13;0.13;;;;;;;;;;5023806;28;20502;-71
2021/12/30 03:22:04;;;;;;;0.85;0.50;;;;;;;;;;5022434;28;20092;-71
2021/12/30 03:24:30;;;;;;;0.95;0.95;;;;;;;;;;5019273;28;20520;-72
2021/12/30 03:26:56;;;;;;;0.75;0.35;;;;;;;;;;5020089;28;20095;-71
2021/12/30 03:29:22;;;;;;;0.20;0.20;;;;;;;;;;5019958;28;20488;-71
2021/12/30 03:31:48;;;;;;;0.28;0.20;;;;;;;;;;5022026;28;20021;-71
2021/12/30 03:34:14;;;;;;;3.00;1.23;;;;;;;;;;5021067;28;20739;-72
2021/12/30 03:36:40;;;;;;;1.75;1.20;;;;;;;;;;5026516;28;20034;-72
2021/12/30 03:39:07;;;;;;;0.35;0.35;;;;;;;;;;5024404;28;20036;-73
2021/12/30 03:41:33;;;;;;;0.22;0.15;;;;;;;;;;5027307;28;20061;-72
2021/12/30 03:44:00;;;;;;;0.50;0.50;;;;;;;;;;5025563;28;20099;-72
2021/12/30 03:46:27;;;;;;;1.08;0.68;;;;;;;;;;5014575;28;20037;-72
2021/12/30 03:48:53;;;;;;;0.90;0.90;;;;;;;;;;5012906;28;20096;-72
2021/12/30 03:51:21;;;;;;;0.35;0.35;;;;;;;;;;5022354;28;20683;-72
2021/12/30 03:53:49;;;;;;;0.75;0.52;;;;;;;;;;5024527;28;20100;-72
2021/12/30 03:56:15;;;;;;;0.10;0.10;;;;;;;;;;5023586;28;20487;-72
2021/12/30 03:58:42;;;;;;;0.90;0.40;;;;;;;;;;5022276;28;20079;-72
2021/12/30 04:01:10;;;;;;;0.47;0.47;;;;;;;;;;5026709;28;20031;-72
2021/12/30 04:03:36;;;;;;;0.68;0.68;;;;;;;;;;5018499;28;20068;-72
2021/12/30 04:06:02;;;;;;;0.85;0.47;;;;;;;;;;5020385;28;20064;-72
2021/12/30 04:08:28;;;;;;;0.65;0.43;;;;;;;;;;5028387;28;20028;-72
2021/12/30 04:10:56;;;;;;;0.15;0.15;;;;;;;;;;5025162;28;20038;-72
2021/12/30 04:13:21;;;;;;;0.20;0.20;;;;;;;;;;5024973;28;20022;-72
2021/12/30 04:15:47;;;;;;;1.85;1.15;;;;;;;;;;5023253;28;20034;-72
2021/12/30 04:18:13;;;;;;;0.57;0.57;;;;;;;;;;5024337;28;20435;-71
2021/12/30 04:20:39;;;;;;;0.00;0.00;;;;;;;;;;5025959;28;20041;-72
2021/12/30 04:23:07;;;;;;;1.20;1.10;;;;;;;;;;5023410;28;20534;-72
2021/12/30 04:25:34;;;;;;;0.00;0.00;;;;;;;;;;5023328;28;20022;-72
2021/12/30 04:27:59;;;;;;;0.73;0.73;;;;;;;;;;5032154;28;20029;-72
2021/12/30 04:30:26;;;;;;;6.43;1.00;;;;;;;;;;5022151;28;20103;-72
2021/12/30 04:32:52;;;;;;;0.47;0.47;;;;;;;;;;5021071;28;20025;-72
2021/12/30 04:35:18;;;;;;;0.50;0.50;;;;;;;;;;5018716;28;20021;-72
2021/12/30 04:37:44;;;;;;;1.13;1.02;;;;;;;;;;5019733;28;20503;-72
2021/12/30 04:40:10;;;;;;;0.82;0.82;;;;;;;;;;5020031;28;20510;-72
2021/12/30 04:42:36;;;;;;;0.20;0.20;;;;;;;;;;5020236;28;20059;-72
2021/12/30 04:45:03;;;;;;;0.30;0.30;;;;;;;;;;5021255;28;20491;-72
2021/12/30 04:47:29;;;;;;;0.20;0.20;;;;;;;;;;5022921;28;20064;-72
2021/12/30 04:49:57;;;;;;;3.10;0.88;;;;;;;;;;5025210;28;20029;-72
2021/12/30 04:52:23;;;;;;;1.05;0.80;;;;;;;;;;5023034;28;20021;-72
2021/12/30 04:54:49;;;;;;;0.20;0.20;;;;;;;;;;5022518;28;20021;-72
2021/12/30 04:57:15;;;;;;;1.48;1.38;;;;;;;;;;5024538;28;20467;-72
2021/12/30 04:59:41;;;;;;;0.15;0.15;;;;;;;;;;5024501;28;20032;-71
2021/12/30 05:02:07;;;;;;;0.70;0.65;;;;;;;;;;5012608;28;20095;-72
2021/12/30 05:04:33;;;;;;;1.38;1.27;;;;;;;;;;5027810;28;20039;-72
2021/12/30 05:06:59;;;;;;;2.58;1.02;;;;;;;;;;5014071;28;20582;-71
2021/12/30 05:09:25;;;;;;;0.30;0.30;;;;;;;;;;5019113;28;20029;-72
2021/12/30 05:11:51;;;;;;;1.08;0.75;;;;;;;;;;5019284;28;20030;-71
2021/12/30 05:14:17;;;;;;;3.60;1.77;;;;;;;;;;5022685;28;20075;-72
2021/12/30 05:16:44;;;;;;;4.53;1.15;;;;;;;;;;5025197;28;20026;-72
2021/12/30 05:19:10;;;;;;;1.02;1.02;;;;;;;;;;5031409;28;20035;-72
2021/12/30 05:21:36;;;;;;;1.17;0.98;;;;;;;;;;5024806;28;20022;-72
2021/12/30 05:24:02;;;;;;;0.40;0.40;;;;;;;;;;5023948;28;20140;-72
2021/12/30 05:26:29;;;;;;;0.90;0.82;;;;;;;;;;5019934;28;20087;-72
2021/12/30 05:28:55;;;;;;;0.52;0.52;;;;;;;;;;5024387;28;20037;-72
2021/12/30 05:31:21;;;;;;;1.02;0.98;;;;;;;;;;5019526;28;20041;-72
2021/12/30 05:33:47;;;;;;;0.70;0.50;;;;;;;;;;5020160;28;20021;-72
2021/12/30 05:36:13;;;;;;;0.68;0.68;;;;;;;;;;5017057;28;20109;-72
2021/12/30 05:38:39;;;;;;;1.45;0.57;;;;;;;;;;5018554;28;20124;-72
2021/12/30 05:41:05;;;;;;;0.32;0.32;;;;;;;;;;5021128;28;20112;-73
2021/12/30 05:43:31;;;;;;;2.30;0.73;;;;;;;;;;5017108;28;20109;-73
2021/12/30 05:45:57;;;;;;;12.18;2.83;;;;;;;;;;5018711;28;20476;-72
2021/12/30 05:48:23;;;;;;;2.30;0.88;;;;;;;;;;5019696;28;20048;-72
2021/12/30 05:50:49;;;;;;;1.75;1.38;;;;;;;;;;5025266;28;20491;-72
2021/12/30 05:53:15;;;;;;;0.45;0.45;;;;;;;;;;5026317;28;20109;-72
2021/12/30 05:55:41;;;;;;;2.60;0.43;;;;;;;;;;5027749;28;20513;-73
2021/12/30 05:58:07;;;;;;;0.45;0.45;;;;;;;;;;5027313;28;20033;-72
2021/12/30 06:00:33;;;;;;;1.38;0.77;;;;;;;;;;5027811;28;20136;-72
2021/12/30 06:02:59;;;;;;;0.50;0.50;;;;;;;;;;5028153;28;20034;-72
2021/12/30 06:05:25;;;;;;;0.40;0.32;;;;;;;;;;5024842;28;20037;-72
2021/12/30 06:07:51;;;;;;;1.58;1.02;;;;;;;;;;5036601;28;20484;-72
2021/12/30 06:10:18;;;;;;;3.60;2.13;;;;;;;;;;5024081;28;20033;-72
2021/12/30 06:12:45;;;;;;;4.18;1.83;;;;;;;;;;5021978;28;20029;-72
2021/12/30 06:15:12;;;;;;;1.73;1.30;;;;;;;;;;5022756;28;20025;-72
2021/12/30 06:17:38;;;;;;;3.88;1.77;;;;;;;;;;5022149;28;20484;-72
2021/12/30 06:20:06;;;;;;;4.28;1.00;;;;;;;;;;5025853;28;20530;-72
2021/12/30 06:22:31;;;;;;;1.85;1.75;;;;;;;;;;5027434;28;20421;-72
2021/12/30 06:24:57;;;;;;;1.20;1.13;;;;;;;;;;5025407;28;20025;-72
2021/12/30 06:27:23;;;;;;;0.47;0.47;;;;;;;;;;5022723;28;20026;-72
2021/12/30 06:29:49;;;;;;;0.38;0.38;;;;;;;;;;5027051;28;20056;-72
2021/12/30 06:32:15;;;;;;;0.95;0.95;;;;;;;;;;5019624;28;20026;-72
2021/12/30 06:34:41;;;;;;;9.00;1.48;;;;;;;;;;5021123;28;20029;-72
2021/12/30 06:37:07;;;;;;;0.30;0.30;;;;;;;;;;5030198;28;20029;-72
2021/12/30 06:39:33;;;;;;;0.80;0.80;;;;;;;;;;5024227;28;20037;-72
2021/12/30 06:41:59;;;;;;;3.50;0.55;;;;;;;;;;5024642;28;20025;-72
2021/12/30 06:44:25;;;;;;;0.88;0.85;;;;;;;;;;5033164;28;20469;-72
2021/12/30 06:46:58;;;;;;;2.00;1.90;;;;;;;;;;5024588;28;20132;-73
2021/12/30 06:49:24;;;;;;;0.65;0.50;;;;;;;;;;5021385;28;20052;-71
2021/12/30 06:51:50;;;;;;;0.52;0.52;;;;;;;;;;5024827;28;20805;-71
2021/12/30 06:54:16;;;;;;;0.35;0.35;;;;;;;;;;5022149;28;20037;-72
2021/12/30 06:56:42;;;;;;;0.47;0.38;;;;;;;;;;5027179;28;20092;-72
2021/12/30 06:59:08;;;;;;;4.18;2.63;;;;;;;;;;5026524;28;20029;-72
2021/12/30 07:01:34;;;;;;;0.57;0.57;;;;;;;;;;5024997;28;20470;-72
2021/12/30 07:04:00;;;;;;;0.65;0.65;;;;;;;;;;5021761;28;20029;-72
2021/12/30 07:06:26;;;;;;;0.93;0.93;;;;;;;;;;5020805;28;20484;-72
2021/12/30 07:08:52;;;;;;;1.25;1.15;;;;;;;;;;5019828;28;20045;-73
2021/12/30 07:11:18;;;;;;;3.15;1.88;;;;;;;;;;5013851;28;20746;-71
2021/12/30 07:13:44;;;;;;;0.08;0.08;;;;;;;;;;5020286;28;20839;-71
2021/12/30 07:16:10;;;;;;;0.85;0.75;;;;;;;;;;5018570;28;20144;-71
2021/12/30 07:18:36;;;;;;;0.63;0.63;;;;;;;;;;5018171;28;20033;-71
2021/12/30 07:21:02;;;;;;;3.80;1.75;;;;;;;;;;5018647;28;20037;-71
2021/12/30 07:23:28;;;;;;;1.40;1.13;;;;;;;;;;5019677;28;20053;-71
2021/12/30 07:25:53;;;;;;;4.43;0.40;;;;;;;;;;5025720;28;20392;-74
2021/12/30 07:28:19;;;;;;;1.38;1.27;;;;;;;;;;5023546;28;20136;-75
2021/12/30 07:30:45;;;;;;;1.55;0.75;;;;;;;;;;5028474;28;20025;-72
2021/12/30 07:33:11;;;;;;;0.30;0.30;;;;;;;;;;5024230;28;20030;-73
2021/12/30 07:35:37;;;;;;;0.45;0.20;;;;;;;;;;5015352;28;20074;-71
2021/12/30 07:38:03;;;;;;;1.42;1.33;;;;;;;;;;5023764;28;20036;-71
2021/12/30 07:40:30;;;;;;;2.17;1.13;;;;;;;;;;5019935;28;20037;-73
2021/12/30 07:42:56;;;;;;;2.85;1.55;;;;;;;;;;5012153;28;20152;-71
2021/12/30 07:45:22;;;;;;;0.50;0.50;;;;;;;;;;5013250;28;20124;-71
2021/12/30 07:47:49;;;;;;;1.17;1.05;;;;;;;;;;5024949;28;20025;-71
2021/12/30 07:50:15;;;;;;;0.38;0.38;;;;;;;;;;5022826;28;20036;-71
2021/12/30 07:52:41;;;;;;;1.20;1.20;;;;;;;;;;5022987;28;20044;-72
2021/12/30 07:55:08;;;;;;;0.82;0.80;;;;;;;;;;5025928;28;20021;-72
2021/12/30 07:57:34;;;;;;;0.20;0.20;;;;;;;;;;5020065;28;20030;-72
2021/12/30 07:59:59;;;;;;;0.38;0.38;;;;;;;;;;5019557;28;20079;-72
2021/12/30 08:02:25;;;;;;;4.60;1.73;;;;;;;;;;5018922;28;20140;-72
2021/12/30 08:04:51;;;;;;;0.30;0.30;;;;;;;;;;5019308;28;20029;-72
2021/12/30 08:07:21;;;;;;;0.80;0.52;;;;;;;;;;5029237;28;20055;-72
2021/12/30 08:09:47;;;;;;;2.42;1.85;;;;;;;;;;5030251;28;20028;-72
2021/12/30 08:12:13;;;;;;;1.65;1.17;;;;;;;;;;5017568;28;20033;-72
2021/12/30 08:14:39;;;;;;;2.05;1.67;;;;;;;;;;5020570;28;20025;-72
2021/12/30 08:17:05;;;;;;;4.05;0.98;;;;;;;;;;5021084;28;20037;-72
2021/12/30 08:19:31;;;;;;;1.52;1.42;;;;;;;;;;5022317;28;20033;-71
2021/12/30 08:21:57;;;;;;;0.10;0.10;;;;;;;;;;5029351;28;20079;-72
2021/12/30 08:24:23;;;;;;;1.58;1.30;;;;;;;;;;5024875;28;20056;-72
2021/12/30 08:26:49;;;;;;;4.60;0.47;;;;;;;;;;5023448;28;20052;-72
2021/12/30 08:29:15;;;;;;;0.90;0.55;;;;;;;;;;5020197;28;20033;-71
2021/12/30 08:31:41;;;;;;;1.55;0.70;;;;;;;;;;5023882;28;20076;-72
2021/12/30 08:34:07;;;;;;;0.35;0.35;;;;;;;;;;5018044;28;20037;-73
2021/12/30 08:36:34;;;;;;;1.17;1.08;;;;;;;;;;5022824;28;20033;-72
2021/12/30 08:39:00;;;;;;;0.52;0.47;;;;;;;;;;5024836;28;20034;-73
2021/12/30 08:41:25;;;;;;;2.50;1.52;;;;;;;;;;5021741;28;20171;-72
2021/12/30 08:43:51;;;;;;;4.30;1.80;;;;;;;;;;5022926;28;21410;-72
2021/12/30 08:46:17;;;;;;;3.63;2.53;;;;;;;;;;5018557;28;20030;-72
2021/12/30 08:48:44;;;;;;;4.90;2.70;;;;;;;;;;5020535;28;20385;-72
2021/12/30 08:51:09;;;;;;;10.20;2.58;;;;;;;;;;5017064;28;20096;-73
2021/12/30 08:53:41;;;;;;;2.92;2.20;;;;;;;;;;5022742;28;20180;-71
2021/12/30 08:56:08;;;;;;;1.35;1.27;;;;;;;;;;5019132;28;20091;-70
2021/12/30 08:58:34;;;;;;;1.38;0.77;;;;;;;;;;5020438;28;20116;-71
2021/12/30 09:01:00;;;;;;;0.35;0.35;;;;;;;;;;5022773;28;20595;-71
2021/12/30 09:03:26;;;;;;;3.67;0.98;;;;;;;;;;5016866;28;20155;-71
2021/12/30 09:05:51;;;;;;;0.60;0.55;;;;;;;;;;5027373;28;20122;-71
2021/12/30 09:08:17;;;;;;;0.63;0.50;;;;;;;;;;5016297;28;20392;-71
2021/12/30 09:10:45;;;;;;;3.28;2.70;;;;;;;;;;5018117;28;20014;-71
2021/12/30 09:13:14;;;;;;;0.32;0.32;;;;;;;;;;5019403;28;20037;-71
2021/12/30 09:15:40;;;;;;;1.27;0.60;;;;;;;;;;5021251;28;20029;-71
2021/12/30 09:18:07;;;;;;;1.65;1.10;;;;;;;;;;5023078;28;20025;-71
2021/12/30 09:20:33;;;;;;;0.60;0.38;;;;;;;;;;5022497;28;20665;-72
2021/12/30 09:22:59;;;;;;;1.67;1.40;;;;;;;;;;5023037;28;20057;-72
2021/12/30 09:25:25;;;;;;;1.17;0.73;;;;;;;;;;5023293;28;20076;-71
2021/12/30 09:27:52;;;;;;;0.40;0.40;;;;;;;;;;5023408;28;20456;-71
2021/12/30 09:30:18;;;;;;;1.65;1.55;;;;;;;;;;5024482;28;20032;-71
2021/12/30 09:32:45;;;;;;;2.20;1.48;;;;;;;;;;5027864;28;20037;-72
2021/12/30 09:35:11;;;;;;;0.98;0.90;;;;;;;;;;5022357;28;20032;-71
2021/12/30 09:37:38;;;;;;;0.57;0.50;;;;;;;;;;5027413;28;20033;-71
2021/12/30 09:40:05;;;;;;;0.47;0.47;;;;;;;;;;5024347;28;20029;-71
2021/12/30 09:42:31;;;;;;;1.30;0.93;;;;;;;;;;5022735;28;20121;-71
2021/12/30 09:44:57;;;;;;;0.10;0.10;;;;;;;;;;5021261;28;20025;-71
2021/12/30 09:47:23;;;;;;;2.28;1.67;;;;;;;;;;5017091;28;20068;-71
2021/12/30 09:49:52;;;;;;;2.20;2.00;;;;;;;;;;5020704;28;20464;-74
2021/12/30 09:52:18;;;;;;;1.58;0.90;;;;;;;;;;5025689;28;20025;-75
2021/12/30 09:54:44;;;;;;;7.40;2.75;;;;;;;;;;5025886;28;20303;-74
2021/12/30 09:57:10;;;;;;;1.10;0.90;;;;;;;;;;5024361;28;20033;-73
2021/12/30 09:59:36;;;;;;;1.33;1.17;;;;;;;;;;5025228;28;20021;-75
2021/12/30 10:02:02;;;;;;;1.05;0.88;;;;;;;;;;5030800;28;20575;-75
2021/12/30 10:04:29;;;;;;;0.43;0.38;;;;;;;;;;5021009;28;20057;-76
2021/12/30 10:06:56;;;;;;;1.30;1.20;;;;;;;;;;5020261;28;20072;-75
2021/12/30 10:09:29;;;;;;;0.00;0.00;;;;;;;;;;5020468;28;20087;-75
2021/12/30 10:11:56;;;;;;;10.63;1.80;;;;;;;;;;5015803;28;20030;-74
2021/12/30 10:14:26;;;;;;;0.90;0.63;;;;;;;;;;5021998;28;20084;-76
2021/12/30 10:16:52;;;;;;;0.90;0.73;;;;;;;;;;5025149;28;20021;-76
2021/12/30 10:19:25;;;;;;;0.28;0.28;;;;;;;;;;5025231;28;20021;-76
2021/12/30 10:21:51;;;;;;;0.20;0.20;;;;;;;;;;5025291;28;20113;-75
2021/12/30 10:24:17;;;;;;;0.75;0.70;;;;;;;;;;5025501;28;20096;-76
2021/12/30 10:26:49;;;;;;;1.80;1.60;;;;;;;;;;5024345;28;20116;-74
2021/12/30 10:29:15;;;;;;;0.47;0.47;;;;;;;;;;5021944;28;20025;-74
2021/12/30 10:31:43;;;;;;;0.73;0.73;;;;;;;;;;5024996;28;20390;-76
2021/12/30 10:34:12;;;;;;;2.65;1.13;;;;;;;;;;5025745;28;20488;-76
2021/12/30 10:36:42;;;;;;;1.23;1.15;;;;;;;;;;5019474;28;20058;-75
2021/12/30 10:39:16;;;;;;;7.18;1.92;;;;;;;;;;5018554;28;20044;-75
2021/12/30 10:41:42;;;;;;;0.85;0.85;;;;;;;;;;5020165;28;20033;-75
2021/12/30 10:44:08;;;;;;;3.10;1.27;;;;;;;;;;5026404;28;20032;-76
2021/12/30 10:46:34;;;;;;;0.68;0.65;;;;;;;;;;5025847;28;20033;-75
2021/12/30 10:49:12;;;;;;;0.65;0.65;;;;;;;;;;5023932;28;20177;-75
2021/12/30 10:51:40;;;;;;;2.20;1.13;;;;;;;;;;5020067;28;20029;-73
2021/12/30 10:54:17;;;;;;;3.53;0.93;;;;;;;;;;5020583;28;20425;-72
2021/12/30 10:56:47;;;;;;;0.38;0.38;;;;;;;;;;5019414;28;20448;-73
2021/12/30 10:59:15;;;;;;;0.90;0.73;;;;;;;;;;5022747;28;20029;-74
2021/12/30 11:01:42;;;;;;;2.00;0.68;;;;;;;;;;5024701;28;20442;-73
2021/12/30 11:04:09;;;;;;;0.22;0.20;;;;;;;;;;5016418;28;20502;-73
2021/12/30 11:06:35;;;;;;;1.17;1.08;;;;;;;;;;5019174;28;20021;-75
2021/12/30 11:09:06;;;;;;;0.52;0.52;;;;;;;;;;5018061;28;20422;-73
2021/12/30 11:11:32;;;;;;;0.32;0.32;;;;;;;;;;5018639;28;20068;-75
2021/12/30 11:13:59;;;;;;;7.53;3.13;;;;;;;;;;5027557;28;20072;-73
2021/12/30 11:16:25;;;;;;;2.20;1.92;;;;;;;;;;5021439;28;20542;-73
2021/12/30 11:18:51;;;;;;;1.13;1.02;;;;;;;;;;5023880;28;20116;-74
2021/12/30 11:21:36;;;;;;;0.30;0.30;;;;;;;;;;5015665;28;20034;-73
2021/12/30 11:24:03;;;;;;;2.15;1.00;;;;;;;;;;5018957;28;20423;-73
2021/12/30 11:26:29;;;;;;;0.20;0.20;;;;;;;;;;5018812;28;20026;-73
2021/12/30 11:28:55;;;;;;;1.65;1.55;;;;;;;;;;5021358;28;20034;-72
2021/12/30 11:31:21;;;;;;;1.42;1.33;;;;;;;;;;5022260;28;20045;-72
2021/12/30 11:33:47;;;;;;;0.38;0.38;;;;;;;;;;5016776;28;20034;-71
2021/12/30 11:36:13;;;;;;;0.80;0.70;;;;;;;;;;5022354;28;20037;-74
2021/12/30 11:38:39;;;;;;;0.30;0.30;;;;;;;;;;5016276;28;20040;-77
2021/12/30 11:41:05;;;;;;;3.35;0.95;;;;;;;;;;5024366;28;20037;-74
2021/12/30 11:43:44;;;;;;;0.77;0.40;;;;;;;;;;5021034;28;20028;-77
2021/12/30 11:46:29;;;;;;;0.30;0.30;;;;;;;;;;5024740;28;20076;-76
2021/12/30 11:49:01;;;;;;;0.28;0.28;;;;;;;;;;5020841;28;20043;-73
2021/12/30 11:51:40;;;;;;;1.13;0.98;;;;;;;;;;5018300;28;20026;-74
2021/12/30 11:54:25;;;;;;;0.10;0.10;;;;;;;;;;5021359;28;20504;-74
2021/12/30 11:57:10;;;;;;;4.10;1.05;;;;;;;;;;5015086;28;20035;-73
2021/12/30 11:59:39;;;;;;;0.60;0.40;;;;;;;;;;5017159;28;20519;-75
2021/12/30 12:02:25;;;;;;;0.00;0.00;;;;;;;;;;5025843;28;20025;-74
2021/12/30 12:04:51;;;;;;;0.15;0.15;;;;;;;;;;5021248;28;20220;-75
2021/12/30 12:07:17;;;;;;;0.17;0.17;;;;;;;;;;5022415;28;20026;-78
2021/12/30 12:09:49;;;;;;;1.92;1.83;;;;;;;;;;5019329;28;20384;-74
2021/12/30 12:12:28;;;;;;;1.45;1.30;;;;;;;;;;5019864;28;20049;-73
2021/12/30 12:14:56;;;;;;;5.82;1.75;;;;;;;;;;5016728;28;20484;-74
2021/12/30 12:17:44;;;;;;;1.48;1.38;;;;;;;;;;5015643;28;20059;-73
2021/12/30 12:20:18;;;;;;;2.08;1.05;;;;;;;;;;5017757;28;20034;-72
2021/12/30 12:22:44;;;;;;;0.90;0.90;;;;;;;;;;5011839;28;20448;-72
2021/12/30 12:25:12;;;;;;;0.50;0.50;;;;;;;;;;5022702;28;20114;-75
2021/12/30 12:27:45;;;;;;;3.63;2.08;;;;;;;;;;5018960;28;20044;-72
2021/12/30 12:30:23;;;;;;;0.40;0.40;;;;;;;;;;5018746;28;20503;-71
2021/12/30 12:32:49;;;;;;;0.30;0.30;;;;;;;;;;5018332;28;20224;-71
2021/12/30 12:35:18;;;;;;;0.50;0.50;;;;;;;;;;5015556;28;20457;-72
2021/12/30 12:37:47;;;;;;;1.00;0.63;;;;;;;;;;5017110;28;20087;-71
2021/12/30 12:40:16;;;;;;;0.80;0.80;;;;;;;;;;5014437;28;20108;-72
2021/12/30 12:42:51;;;;;;;0.90;0.90;;;;;;;;;;5021108;28;20053;-72
2021/12/30 12:45:21;;;;;;;0.38;0.38;;;;;;;;;;5020700;28;20063;-73
2021/12/30 12:47:48;;;;;;;0.73;0.73;;;;;;;;;;5023221;28;20028;-73
2021/12/30 12:50:14;;;;;;;0.28;0.28;;;;;;;;;;5015676;28;20033;-73
2021/12/30 12:52:44;;;;;;;0.20;0.20;;;;;;;;;;5022147;28;20120;-73
2021/12/30 12:55:20;;;;;;;0.90;0.90;;;;;;;;;;5021997;28;20025;-75
2021/12/30 12:57:46;;;;;;;1.60;1.50;;;;;;;;;;5015316;28;20036;-74
2021/12/30 13:00:12;;;;;;;1.33;1.02;;;;;;;;;;5012324;28;20022;-74
2021/12/30 13:02:38;;;;;;;2.35;1.35;;;;;;;;;;5020786;28;20575;-73
2021/12/30 13:05:07;;;;;;;0.93;0.90;;;;;;;;;;5020031;28;20036;-74
2021/12/30 13:07:34;;;;;;;0.10;0.10;;;;;;;;;;5016222;28;20116;-74
2021/12/30 13:09:59;;;;;;;3.20;0.80;;;;;;;;;;5022597;28;20036;-74
2021/12/30 13:12:25;;;;;;;1.23;1.02;;;;;;;;;;5019869;28;20025;-74
2021/12/30 13:14:51;;;;;;;3.75;1.48;;;;;;;;;;5017879;28;20021;-73
2021/12/30 13:17:17;;;;;;;2.63;1.73;;;;;;;;;;5020583;28;20349;-74
2021/12/30 13:19:47;;;;;;;1.67;0.85;;;;;;;;;;5016509;28;20034;-74
2021/12/30 13:22:14;;;;;;;2.97;1.85;;;;;;;;;;5017908;28;20084;-74
2021/12/30 13:24:42;;;;;;;0.73;0.65;;;;;;;;;;5015254;28;20132;-74
2021/12/30 13:27:08;;;;;;;0.70;0.70;;;;;;;;;;5018558;28;20079;-75
2021/12/30 13:29:36;;;;;;;0.20;0.20;;;;;;;;;;5020833;28;20033;-74
2021/12/30 13:32:04;;;;;;;0.45;0.45;;;;;;;;;;5024508;28;20045;-74
2021/12/30 13:34:30;;;;;;;1.02;0.30;;;;;;;;;;5022339;28;20750;-73
2021/12/30 13:37:23;;;;;;;0.40;0.40;;;;;;;;;;5023217;28;20033;-76
2021/12/30 13:39:54;;;;;;;0.40;0.32;;;;;;;;;;5014654;28;20368;-75
2021/12/30 13:42:20;;;;;;;;;;;;;;;;;;5014740;28;20052;-73
2021/12/30 13:44:49;;;;;;;0.30;0.30;;;;;;;;;;5017920;28;19913;-73
2021/12/30 13:47:15;;;;;;;0.32;0.32;;;;;;;;;;4987250;28;20038;-74
2021/12/30 13:49:41;;;;;;;0.35;0.20;;;;;;;;;;4992419;28;20044;-74
2021/12/30 13:52:07;;;;;;;0.28;0.22;;;;;;;;;;4988470;28;20883;-74
2021/12/30 13:54:33;;;;;;;0.22;0.22;;;;;;;;;;4988618;28;21490;-74
2021/12/30 13:56:59;;;;;;;0.47;0.47;;;;;;;;;;4988882;28;20034;-75
2021/12/30 13:59:30;;;;;;;0.25;0.25;;;;;;;;;;4985828;28;20036;-74
2021/12/30 14:02:03;;;;;;;0.40;0.40;;;;;;;;;;4988210;28;20189;-74
2021/12/30 14:04:38;;;;;;;0.43;0.43;;;;;;;;;;4988691;28;20080;-75
2021/12/30 14:07:05;;;;;;;0.20;0.20;;;;;;;;;;4984966;28;21025;-74
2021/12/30 14:09:31;;;;;;;0.13;0.13;;;;;;;;;;4987437;28;20032;-74
2021/12/30 14:12:02;;;;;;;0.03;0.03;;;;;;;;;;4990185;28;20033;-74
2021/12/30 14:14:34;;;;;;;0.65;0.35;;;;;;;;;;4991688;28;20038;-74
2021/12/30 14:17:02;;;;;;;0.15;0.15;;;;;;;;;;4992737;28;20037;-74
2021/12/30 14:19:36;;;;;;;0.10;0.10;;;;;;;;;;4989342;28;20036;-76
2021/12/30 14:22:03;;;;;;;0.32;0.32;;;;;;;;;;4986876;28;20041;-77
2021/12/30 14:24:29;;;;;;;0.35;0.35;;;;;;;;;;4993846;28;20400;-77
2021/12/30 14:27:00;;;;;;;0.00;0.00;;;;;;;;;;4994280;28;20063;-76
2021/12/30 14:29:28;;;;;;;0.52;0.52;;;;;;;;;;4993597;28;20038;-76
2021/12/30 14:31:54;;;;;;;6.22;1.00;;;;;;;;;;4993977;28;20045;-77
2021/12/30 14:34:40;;;;;;;0.13;0.13;;;;;;;;;;4990357;28;20091;-75
2021/12/30 14:37:11;;;;;;;0.00;0.00;;;;;;;;;;4989906;28;20040;-76
2021/12/30 14:39:42;;;;;;;0.88;0.88;;;;;;;;;;4992334;28;20095;-76
2021/12/30 14:42:13;;;;;;;0.20;0.20;;;;;;;;;;4993151;28;20084;-76
2021/12/30 14:44:44;;;;;;;0.32;0.32;;;;;;;;;;4993205;28;20021;-77